sensor_id;sensor_type;location;lat;lon;timestamp;P1;durP1;ratioP1;P2;durP2;ratioP2
17852;SDS011;9052;53.494;14.376;2023-04-23T00:01:27;14.43;;;7.80;;
17852;SDS011;9052;53.494;14.376;2023-04-23T00:03:56;12.43;;;7.40;;
17852;SDS011;9052;53.494;14.376;2023-04-23T00:06:23;12.50;;;8.10;;
17852;SDS011;9052;53.494;14.376;2023-04-23T00:08:54;13.17;;;8.53;;
17852;SDS011;9052;53.494;14.376;2023-04-23T00:11:22;14.67;;;8.10;;
17852;SDS011;9052;53.494;14.376;2023-04-23T00:13:49;10.87;;;7.87;;
17852;SDS011;9052;53.494;14.376;2023-04-23T00:16:17;13.60;;;8.80;;
17852;SDS011;9052;53.494;14.376;2023-04-23T00:18:44;9.77;;;7.73;;
17852;SDS011;9052;53.494;14.376;2023-04-23T00:21:12;17.20;;;9.17;;
17852;SDS011;9052;53.494;14.376;2023-04-23T00:23:39;11.57;;;8.37;;
17852;SDS011;9052;53.494;14.376;2023-04-23T00:26:06;16.20;;;8.87;;
17852;SDS011;9052;53.494;14.376;2023-04-23T00:28:32;15.80;;;8.73;;
17852;SDS011;9052;53.494;14.376;2023-04-23T00:30:59;10.73;;;8.63;;
17852;SDS011;9052;53.494;14.376;2023-04-23T00:33:25;13.23;;;8.50;;
17852;SDS011;9052;53.494;14.376;2023-04-23T00:35:52;9.93;;;7.70;;
17852;SDS011;9052;53.494;14.376;2023-04-23T00:38:20;11.43;;;8.73;;
17852;SDS011;9052;53.494;14.376;2023-04-23T00:40:47;13.33;;;8.97;;
17852;SDS011;9052;53.494;14.376;2023-04-23T00:43:13;14.37;;;8.80;;
17852;SDS011;9052;53.494;14.376;2023-04-23T00:45:41;13.40;;;8.90;;
17852;SDS011;9052;53.494;14.376;2023-04-23T00:48:08;11.50;;;7.77;;
17852;SDS011;9052;53.494;14.376;2023-04-23T00:50:35;12.83;;;7.40;;
17852;SDS011;9052;53.494;14.376;2023-04-23T00:53:02;12.83;;;8.20;;
17852;SDS011;9052;53.494;14.376;2023-04-23T00:55:31;13.20;;;7.13;;
17852;SDS011;9052;53.494;14.376;2023-04-23T00:57:58;11.77;;;8.10;;
17852;SDS011;9052;53.494;14.376;2023-04-23T01:00:25;15.37;;;9.90;;
17852;SDS011;9052;53.494;14.376;2023-04-23T01:02:52;10.93;;;8.03;;
17852;SDS011;9052;53.494;14.376;2023-04-23T01:05:19;13.77;;;8.10;;
17852;SDS011;9052;53.494;14.376;2023-04-23T01:07:46;25.33;;;9.40;;
17852;SDS011;9052;53.494;14.376;2023-04-23T01:10:13;13.97;;;9.57;;
17852;SDS011;9052;53.494;14.376;2023-04-23T01:12:41;13.93;;;9.63;;
17852;SDS011;9052;53.494;14.376;2023-04-23T01:15:08;14.43;;;10.00;;
17852;SDS011;9052;53.494;14.376;2023-04-23T01:17:35;16.57;;;8.73;;
17852;SDS011;9052;53.494;14.376;2023-04-23T01:20:02;19.20;;;8.87;;
17852;SDS011;9052;53.494;14.376;2023-04-23T01:22:32;11.07;;;8.40;;
17852;SDS011;9052;53.494;14.376;2023-04-23T01:24:59;10.67;;;7.93;;
17852;SDS011;9052;53.494;14.376;2023-04-23T01:27:26;9.80;;;8.40;;
17852;SDS011;9052;53.494;14.376;2023-04-23T01:29:52;14.77;;;8.23;;
17852;SDS011;9052;53.494;14.376;2023-04-23T01:32:19;11.33;;;8.03;;
17852;SDS011;9052;53.494;14.376;2023-04-23T01:34:46;18.17;;;9.37;;
17852;SDS011;9052;53.494;14.376;2023-04-23T01:37:13;8.03;;;7.23;;
17852;SDS011;9052;53.494;14.376;2023-04-23T01:39:42;12.93;;;8.27;;
17852;SDS011;9052;53.494;14.376;2023-04-23T01:42:08;15.33;;;9.20;;
17852;SDS011;9052;53.494;14.376;2023-04-23T01:44:35;9.37;;;8.43;;
17852;SDS011;9052;53.494;14.376;2023-04-23T01:47:02;15.63;;;9.47;;
17852;SDS011;9052;53.494;14.376;2023-04-23T01:49:29;13.43;;;8.73;;
17852;SDS011;9052;53.494;14.376;2023-04-23T01:51:56;14.13;;;9.33;;
17852;SDS011;9052;53.494;14.376;2023-04-23T01:54:22;16.57;;;8.33;;
17852;SDS011;9052;53.494;14.376;2023-04-23T01:56:50;11.97;;;7.70;;
17852;SDS011;9052;53.494;14.376;2023-04-23T01:59:19;8.93;;;6.80;;
17852;SDS011;9052;53.494;14.376;2023-04-23T02:01:47;14.37;;;8.37;;
17852;SDS011;9052;53.494;14.376;2023-04-23T02:04:14;12.07;;;8.80;;
17852;SDS011;9052;53.494;14.376;2023-04-23T02:06:41;14.83;;;8.10;;
17852;SDS011;9052;53.494;14.376;2023-04-23T02:09:07;13.13;;;7.60;;
17852;SDS011;9052;53.494;14.376;2023-04-23T02:11:34;11.87;;;7.87;;
17852;SDS011;9052;53.494;14.376;2023-04-23T02:14:02;12.13;;;8.80;;
17852;SDS011;9052;53.494;14.376;2023-04-23T02:16:29;12.50;;;7.83;;
17852;SDS011;9052;53.494;14.376;2023-04-23T02:18:56;15.73;;;8.40;;
17852;SDS011;9052;53.494;14.376;2023-04-23T02:21:23;10.10;;;7.87;;
17852;SDS011;9052;53.494;14.376;2023-04-23T02:23:50;12.50;;;8.30;;
17852;SDS011;9052;53.494;14.376;2023-04-23T02:26:17;12.73;;;8.63;;
17852;SDS011;9052;53.494;14.376;2023-04-23T02:28:44;16.70;;;9.30;;
17852;SDS011;9052;53.494;14.376;2023-04-23T02:31:12;16.00;;;9.50;;
17852;SDS011;9052;53.494;14.376;2023-04-23T02:33:39;11.57;;;9.97;;
17852;SDS011;9052;53.494;14.376;2023-04-23T02:36:06;16.43;;;8.90;;
17852;SDS011;9052;53.494;14.376;2023-04-23T02:38:34;11.67;;;9.57;;
17852;SDS011;9052;53.494;14.376;2023-04-23T02:41:01;14.50;;;9.57;;
17852;SDS011;9052;53.494;14.376;2023-04-23T02:43:27;13.70;;;8.83;;
17852;SDS011;9052;53.494;14.376;2023-04-23T02:45:54;12.30;;;8.10;;
17852;SDS011;9052;53.494;14.376;2023-04-23T02:48:22;9.00;;;7.83;;
17852;SDS011;9052;53.494;14.376;2023-04-23T02:50:51;12.83;;;9.33;;
17852;SDS011;9052;53.494;14.376;2023-04-23T02:53:18;13.80;;;8.60;;
17852;SDS011;9052;53.494;14.376;2023-04-23T02:55:44;17.57;;;9.70;;
17852;SDS011;9052;53.494;14.376;2023-04-23T02:58:11;12.17;;;9.33;;
17852;SDS011;9052;53.494;14.376;2023-04-23T03:00:38;11.57;;;9.50;;
17852;SDS011;9052;53.494;14.376;2023-04-23T03:03:04;15.30;;;9.50;;
17852;SDS011;9052;53.494;14.376;2023-04-23T03:05:32;12.30;;;8.53;;
17852;SDS011;9052;53.494;14.376;2023-04-23T03:07:59;13.47;;;8.63;;
17852;SDS011;9052;53.494;14.376;2023-04-23T03:10:26;22.47;;;10.50;;
17852;SDS011;9052;53.494;14.376;2023-04-23T03:12:52;17.70;;;10.50;;
17852;SDS011;9052;53.494;14.376;2023-04-23T03:15:20;20.13;;;10.90;;
17852;SDS011;9052;53.494;14.376;2023-04-23T03:17:47;22.30;;;11.40;;
17852;SDS011;9052;53.494;14.376;2023-04-23T03:20:15;19.63;;;12.60;;
17852;SDS011;9052;53.494;14.376;2023-04-23T03:22:43;21.47;;;12.90;;
17852;SDS011;9052;53.494;14.376;2023-04-23T03:25:10;14.23;;;11.13;;
17852;SDS011;9052;53.494;14.376;2023-04-23T03:27:37;14.50;;;9.17;;
17852;SDS011;9052;53.494;14.376;2023-04-23T03:30:04;13.83;;;8.27;;
17852;SDS011;9052;53.494;14.376;2023-04-23T03:32:32;15.13;;;9.17;;
17852;SDS011;9052;53.494;14.376;2023-04-23T03:34:58;12.77;;;9.40;;
17852;SDS011;9052;53.494;14.376;2023-04-23T03:37:26;13.60;;;10.37;;
17852;SDS011;9052;53.494;14.376;2023-04-23T03:39:54;13.17;;;9.53;;
17852;SDS011;9052;53.494;14.376;2023-04-23T03:42:20;18.63;;;10.60;;
17852;SDS011;9052;53.494;14.376;2023-04-23T03:44:47;25.53;;;12.80;;
17852;SDS011;9052;53.494;14.376;2023-04-23T03:47:13;24.37;;;12.57;;
17852;SDS011;9052;53.494;14.376;2023-04-23T03:49:40;17.57;;;10.60;;
17852;SDS011;9052;53.494;14.376;2023-04-23T03:52:07;19.30;;;9.30;;
17852;SDS011;9052;53.494;14.376;2023-04-23T03:54:33;11.70;;;9.33;;
17852;SDS011;9052;53.494;14.376;2023-04-23T03:57:01;14.40;;;9.47;;
17852;SDS011;9052;53.494;14.376;2023-04-23T03:59:28;10.70;;;9.17;;
17852;SDS011;9052;53.494;14.376;2023-04-23T04:01:54;17.43;;;9.93;;
17852;SDS011;9052;53.494;14.376;2023-04-23T04:04:22;12.40;;;9.00;;
17852;SDS011;9052;53.494;14.376;2023-04-23T04:06:48;16.30;;;9.03;;
17852;SDS011;9052;53.494;14.376;2023-04-23T04:09:15;17.93;;;9.57;;
17852;SDS011;9052;53.494;14.376;2023-04-23T04:11:41;16.73;;;9.10;;
17852;SDS011;9052;53.494;14.376;2023-04-23T04:14:09;19.73;;;10.53;;
17852;SDS011;9052;53.494;14.376;2023-04-23T04:16:36;13.07;;;10.17;;
17852;SDS011;9052;53.494;14.376;2023-04-23T04:19:03;16.47;;;10.50;;
17852;SDS011;9052;53.494;14.376;2023-04-23T04:21:29;10.50;;;9.40;;
17852;SDS011;9052;53.494;14.376;2023-04-23T04:23:56;15.80;;;10.40;;
17852;SDS011;9052;53.494;14.376;2023-04-23T04:26:25;16.20;;;10.70;;
17852;SDS011;9052;53.494;14.376;2023-04-23T04:28:52;13.67;;;9.97;;
17852;SDS011;9052;53.494;14.376;2023-04-23T04:31:20;12.80;;;10.07;;
17852;SDS011;9052;53.494;14.376;2023-04-23T04:33:47;12.83;;;9.17;;
17852;SDS011;9052;53.494;14.376;2023-04-23T04:36:14;15.30;;;10.77;;
17852;SDS011;9052;53.494;14.376;2023-04-23T04:38:40;13.90;;;10.30;;
17852;SDS011;9052;53.494;14.376;2023-04-23T04:41:08;11.97;;;9.43;;
17852;SDS011;9052;53.494;14.376;2023-04-23T04:43:35;11.00;;;9.40;;
17852;SDS011;9052;53.494;14.376;2023-04-23T04:46:02;11.53;;;8.43;;
17852;SDS011;9052;53.494;14.376;2023-04-23T04:48:30;11.87;;;8.60;;
17852;SDS011;9052;53.494;14.376;2023-04-23T04:50:57;15.03;;;9.57;;
17852;SDS011;9052;53.494;14.376;2023-04-23T04:53:24;15.60;;;10.20;;
17852;SDS011;9052;53.494;14.376;2023-04-23T04:55:50;13.60;;;10.23;;
17852;SDS011;9052;53.494;14.376;2023-04-23T04:58:17;18.90;;;10.17;;
17852;SDS011;9052;53.494;14.376;2023-04-23T05:00:44;12.97;;;10.97;;
17852;SDS011;9052;53.494;14.376;2023-04-23T05:03:15;17.77;;;10.67;;
17852;SDS011;9052;53.494;14.376;2023-04-23T05:05:44;18.33;;;10.40;;
17852;SDS011;9052;53.494;14.376;2023-04-23T05:08:12;15.63;;;8.70;;
17852;SDS011;9052;53.494;14.376;2023-04-23T05:10:40;11.43;;;9.47;;
17852;SDS011;9052;53.494;14.376;2023-04-23T05:13:07;12.33;;;9.10;;
17852;SDS011;9052;53.494;14.376;2023-04-23T05:15:34;13.07;;;8.63;;
17852;SDS011;9052;53.494;14.376;2023-04-23T05:18:01;10.17;;;9.03;;
17852;SDS011;9052;53.494;14.376;2023-04-23T05:20:28;10.30;;;9.10;;
17852;SDS011;9052;53.494;14.376;2023-04-23T05:22:56;16.80;;;11.13;;
17852;SDS011;9052;53.494;14.376;2023-04-23T05:25:23;18.03;;;10.90;;
17852;SDS011;9052;53.494;14.376;2023-04-23T05:27:50;12.93;;;10.57;;
17852;SDS011;9052;53.494;14.376;2023-04-23T05:30:17;24.57;;;9.07;;
17852;SDS011;9052;53.494;14.376;2023-04-23T05:32:44;10.87;;;9.63;;
17852;SDS011;9052;53.494;14.376;2023-04-23T05:35:10;15.83;;;9.97;;
17852;SDS011;9052;53.494;14.376;2023-04-23T05:37:37;15.73;;;9.67;;
17852;SDS011;9052;53.494;14.376;2023-04-23T05:40:06;15.03;;;9.57;;
17852;SDS011;9052;53.494;14.376;2023-04-23T05:42:33;18.17;;;10.10;;
17852;SDS011;9052;53.494;14.376;2023-04-23T05:45:00;13.57;;;10.40;;
17852;SDS011;9052;53.494;14.376;2023-04-23T05:47:27;14.27;;;10.20;;
17852;SDS011;9052;53.494;14.376;2023-04-23T05:49:53;14.40;;;10.23;;
17852;SDS011;9052;53.494;14.376;2023-04-23T05:52:21;15.23;;;9.47;;
17852;SDS011;9052;53.494;14.376;2023-04-23T05:54:50;14.20;;;10.37;;
17852;SDS011;9052;53.494;14.376;2023-04-23T05:57:19;15.50;;;9.07;;
17852;SDS011;9052;53.494;14.376;2023-04-23T05:59:45;16.50;;;9.83;;
17852;SDS011;9052;53.494;14.376;2023-04-23T06:02:12;16.20;;;10.17;;
17852;SDS011;9052;53.494;14.376;2023-04-23T06:04:39;16.13;;;9.60;;
17852;SDS011;9052;53.494;14.376;2023-04-23T06:07:06;18.87;;;10.97;;
17852;SDS011;9052;53.494;14.376;2023-04-23T06:09:32;18.83;;;9.20;;
17852;SDS011;9052;53.494;14.376;2023-04-23T06:11:59;11.90;;;9.63;;
17852;SDS011;9052;53.494;14.376;2023-04-23T06:14:28;23.37;;;10.47;;
17852;SDS011;9052;53.494;14.376;2023-04-23T06:16:56;14.17;;;8.93;;
17852;SDS011;9052;53.494;14.376;2023-04-23T06:19:23;12.60;;;9.00;;
17852;SDS011;9052;53.494;14.376;2023-04-23T06:21:51;14.00;;;9.00;;
17852;SDS011;9052;53.494;14.376;2023-04-23T06:24:18;13.00;;;9.10;;
17852;SDS011;9052;53.494;14.376;2023-04-23T06:26:45;13.03;;;9.70;;
17852;SDS011;9052;53.494;14.376;2023-04-23T06:29:12;17.93;;;15.13;;
17852;SDS011;9052;53.494;14.376;2023-04-23T06:31:40;14.93;;;11.80;;
17852;SDS011;9052;53.494;14.376;2023-04-23T06:34:06;12.17;;;10.87;;
17852;SDS011;9052;53.494;14.376;2023-04-23T06:36:33;21.73;;;11.50;;
17852;SDS011;9052;53.494;14.376;2023-04-23T06:39:00;18.40;;;10.20;;
17852;SDS011;9052;53.494;14.376;2023-04-23T06:41:26;17.50;;;9.60;;
17852;SDS011;9052;53.494;14.376;2023-04-23T06:43:53;11.70;;;9.13;;
17852;SDS011;9052;53.494;14.376;2023-04-23T06:46:20;11.83;;;7.87;;
17852;SDS011;9052;53.494;14.376;2023-04-23T06:48:47;15.17;;;8.10;;
17852;SDS011;9052;53.494;14.376;2023-04-23T06:51:14;9.43;;;7.40;;
17852;SDS011;9052;53.494;14.376;2023-04-23T06:53:41;13.03;;;8.23;;
17852;SDS011;9052;53.494;14.376;2023-04-23T06:56:07;14.67;;;8.53;;
17852;SDS011;9052;53.494;14.376;2023-04-23T06:58:34;9.57;;;8.13;;
17852;SDS011;9052;53.494;14.376;2023-04-23T07:01:01;11.87;;;8.63;;
17852;SDS011;9052;53.494;14.376;2023-04-23T07:03:29;11.77;;;8.67;;
17852;SDS011;9052;53.494;14.376;2023-04-23T07:05:57;11.33;;;9.30;;
17852;SDS011;9052;53.494;14.376;2023-04-23T07:08:25;15.47;;;9.50;;
17852;SDS011;9052;53.494;14.376;2023-04-23T07:10:51;9.57;;;8.40;;
17852;SDS011;9052;53.494;14.376;2023-04-23T07:13:18;13.77;;;7.37;;
17852;SDS011;9052;53.494;14.376;2023-04-23T07:15:45;12.93;;;8.23;;
17852;SDS011;9052;53.494;14.376;2023-04-23T07:18:13;9.20;;;7.90;;
17852;SDS011;9052;53.494;14.376;2023-04-23T07:20:39;11.70;;;9.00;;
17852;SDS011;9052;53.494;14.376;2023-04-23T07:23:08;9.30;;;7.17;;
17852;SDS011;9052;53.494;14.376;2023-04-23T07:25:35;18.37;;;8.33;;
17852;SDS011;9052;53.494;14.376;2023-04-23T07:28:02;9.33;;;7.77;;
17852;SDS011;9052;53.494;14.376;2023-04-23T07:30:29;18.63;;;7.57;;
17852;SDS011;9052;53.494;14.376;2023-04-23T07:32:55;12.73;;;8.03;;
17852;SDS011;9052;53.494;14.376;2023-04-23T07:35:22;9.03;;;6.60;;
17852;SDS011;9052;53.494;14.376;2023-04-23T07:37:49;11.40;;;7.70;;
17852;SDS011;9052;53.494;14.376;2023-04-23T07:40:20;12.10;;;8.27;;
17852;SDS011;9052;53.494;14.376;2023-04-23T07:42:47;17.90;;;7.50;;
17852;SDS011;9052;53.494;14.376;2023-04-23T07:45:14;10.60;;;8.40;;
17852;SDS011;9052;53.494;14.376;2023-04-23T07:47:40;10.83;;;8.43;;
17852;SDS011;9052;53.494;14.376;2023-04-23T07:50:08;8.17;;;7.43;;
17852;SDS011;9052;53.494;14.376;2023-04-23T07:52:35;10.67;;;7.40;;
17852;SDS011;9052;53.494;14.376;2023-04-23T07:55:02;9.20;;;7.70;;
17852;SDS011;9052;53.494;14.376;2023-04-23T07:57:31;8.63;;;7.10;;
17852;SDS011;9052;53.494;14.376;2023-04-23T07:59:58;12.47;;;7.13;;
17852;SDS011;9052;53.494;14.376;2023-04-23T08:02:25;8.33;;;7.40;;
17852;SDS011;9052;53.494;14.376;2023-04-23T08:04:52;13.63;;;8.07;;
17852;SDS011;9052;53.494;14.376;2023-04-23T08:07:19;11.00;;;7.13;;
17852;SDS011;9052;53.494;14.376;2023-04-23T08:09:45;10.30;;;7.87;;
17852;SDS011;9052;53.494;14.376;2023-04-23T08:12:12;11.70;;;7.27;;
17852;SDS011;9052;53.494;14.376;2023-04-23T08:14:42;17.77;;;8.00;;
17852;SDS011;9052;53.494;14.376;2023-04-23T08:17:11;11.63;;;7.27;;
17852;SDS011;9052;53.494;14.376;2023-04-23T08:19:37;9.53;;;6.87;;
17852;SDS011;9052;53.494;14.376;2023-04-23T08:22:04;14.47;;;6.70;;
17852;SDS011;9052;53.494;14.376;2023-04-23T08:24:31;12.83;;;6.83;;
17852;SDS011;9052;53.494;14.376;2023-04-23T08:26:58;19.30;;;7.10;;
17852;SDS011;9052;53.494;14.376;2023-04-23T08:29:24;8.23;;;7.23;;
17852;SDS011;9052;53.494;14.376;2023-04-23T08:31:53;17.70;;;8.70;;
17852;SDS011;9052;53.494;14.376;2023-04-23T08:34:19;12.30;;;8.60;;
17852;SDS011;9052;53.494;14.376;2023-04-23T08:36:46;12.33;;;8.53;;
17852;SDS011;9052;53.494;14.376;2023-04-23T08:39:13;8.97;;;8.00;;
17852;SDS011;9052;53.494;14.376;2023-04-23T08:41:40;8.33;;;7.40;;
17852;SDS011;9052;53.494;14.376;2023-04-23T08:44:11;12.30;;;8.17;;
17852;SDS011;9052;53.494;14.376;2023-04-23T08:46:39;12.57;;;8.90;;
17852;SDS011;9052;53.494;14.376;2023-04-23T08:49:08;9.07;;;7.50;;
17852;SDS011;9052;53.494;14.376;2023-04-23T08:51:37;10.93;;;9.43;;
17852;SDS011;9052;53.494;14.376;2023-04-23T08:54:05;9.57;;;8.30;;
17852;SDS011;9052;53.494;14.376;2023-04-23T08:56:32;17.30;;;8.40;;
17852;SDS011;9052;53.494;14.376;2023-04-23T08:59:01;11.07;;;9.97;;
17852;SDS011;9052;53.494;14.376;2023-04-23T09:01:28;13.33;;;9.20;;
17852;SDS011;9052;53.494;14.376;2023-04-23T09:03:55;11.80;;;9.27;;
17852;SDS011;9052;53.494;14.376;2023-04-23T09:06:23;12.73;;;9.33;;
17852;SDS011;9052;53.494;14.376;2023-04-23T09:08:50;15.03;;;10.40;;
17852;SDS011;9052;53.494;14.376;2023-04-23T09:11:18;20.20;;;10.60;;
17852;SDS011;9052;53.494;14.376;2023-04-23T09:13:45;12.93;;;8.83;;
17852;SDS011;9052;53.494;14.376;2023-04-23T09:16:11;13.57;;;8.77;;
17852;SDS011;9052;53.494;14.376;2023-04-23T09:18:38;17.30;;;9.93;;
17852;SDS011;9052;53.494;14.376;2023-04-23T09:21:04;11.33;;;8.33;;
17852;SDS011;9052;53.494;14.376;2023-04-23T09:23:33;13.90;;;9.80;;
17852;SDS011;9052;53.494;14.376;2023-04-23T09:26:05;14.20;;;9.40;;
17852;SDS011;9052;53.494;14.376;2023-04-23T09:28:35;19.03;;;10.87;;
17852;SDS011;9052;53.494;14.376;2023-04-23T09:31:01;15.00;;;11.40;;
17852;SDS011;9052;53.494;14.376;2023-04-23T09:33:30;20.03;;;10.90;;
17852;SDS011;9052;53.494;14.376;2023-04-23T09:35:59;10.87;;;9.77;;
17852;SDS011;9052;53.494;14.376;2023-04-23T09:38:30;18.83;;;9.20;;
17852;SDS011;9052;53.494;14.376;2023-04-23T09:41:00;17.00;;;12.13;;
17852;SDS011;9052;53.494;14.376;2023-04-23T09:43:46;15.07;;;11.17;;
17852;SDS011;9052;53.494;14.376;2023-04-23T09:46:12;12.63;;;10.20;;
17852;SDS011;9052;53.494;14.376;2023-04-23T09:48:39;14.13;;;10.00;;
17852;SDS011;9052;53.494;14.376;2023-04-23T09:51:07;16.70;;;12.00;;
17852;SDS011;9052;53.494;14.376;2023-04-23T09:53:39;12.53;;;9.67;;
17852;SDS011;9052;53.494;14.376;2023-04-23T09:56:08;24.53;;;11.17;;
17852;SDS011;9052;53.494;14.376;2023-04-23T09:58:35;10.40;;;9.30;;
17852;SDS011;9052;53.494;14.376;2023-04-23T10:01:06;11.17;;;8.23;;
17852;SDS011;9052;53.494;14.376;2023-04-23T10:03:33;12.13;;;9.97;;
17852;SDS011;9052;53.494;14.376;2023-04-23T10:05:59;11.80;;;8.50;;
17852;SDS011;9052;53.494;14.376;2023-04-23T10:08:27;17.90;;;10.20;;
17852;SDS011;9052;53.494;14.376;2023-04-23T10:10:53;18.50;;;10.43;;
17852;SDS011;9052;53.494;14.376;2023-04-23T10:13:22;11.20;;;10.10;;
17852;SDS011;9052;53.494;14.376;2023-04-23T10:15:49;10.83;;;9.73;;
17852;SDS011;9052;53.494;14.376;2023-04-23T10:18:16;15.03;;;11.10;;
17852;SDS011;9052;53.494;14.376;2023-04-23T10:20:44;18.10;;;10.47;;
17852;SDS011;9052;53.494;14.376;2023-04-23T10:23:11;19.77;;;10.77;;
17852;SDS011;9052;53.494;14.376;2023-04-23T10:25:38;19.40;;;10.87;;
17852;SDS011;9052;53.494;14.376;2023-04-23T10:28:05;16.93;;;10.60;;
17852;SDS011;9052;53.494;14.376;2023-04-23T10:30:37;19.70;;;11.33;;
17852;SDS011;9052;53.494;14.376;2023-04-23T10:33:04;15.27;;;12.60;;
17852;SDS011;9052;53.494;14.376;2023-04-23T10:35:31;14.03;;;12.47;;
17852;SDS011;9052;53.494;14.376;2023-04-23T10:37:59;14.00;;;11.90;;
17852;SDS011;9052;53.494;14.376;2023-04-23T10:40:28;14.40;;;13.00;;
17852;SDS011;9052;53.494;14.376;2023-04-23T10:42:55;15.27;;;12.60;;
17852;SDS011;9052;53.494;14.376;2023-04-23T10:45:22;20.30;;;14.30;;
17852;SDS011;9052;53.494;14.376;2023-04-23T10:47:51;15.00;;;13.43;;
17852;SDS011;9052;53.494;14.376;2023-04-23T10:50:19;14.97;;;13.57;;
17852;SDS011;9052;53.494;14.376;2023-04-23T10:52:46;17.47;;;15.07;;
17852;SDS011;9052;53.494;14.376;2023-04-23T10:55:18;15.43;;;13.83;;
17852;SDS011;9052;53.494;14.376;2023-04-23T10:57:54;21.83;;;16.63;;
17852;SDS011;9052;53.494;14.376;2023-04-23T11:00:22;21.63;;;15.13;;
17852;SDS011;9052;53.494;14.376;2023-04-23T11:02:50;22.10;;;15.73;;
17852;SDS011;9052;53.494;14.376;2023-04-23T11:05:17;19.40;;;16.87;;
17852;SDS011;9052;53.494;14.376;2023-04-23T11:08:00;22.70;;;18.03;;
17852;SDS011;9052;53.494;14.376;2023-04-23T11:10:27;23.87;;;18.33;;
17852;SDS011;9052;53.494;14.376;2023-04-23T11:12:54;19.37;;;16.87;;
17852;SDS011;9052;53.494;14.376;2023-04-23T11:15:21;20.00;;;17.77;;
17852;SDS011;9052;53.494;14.376;2023-04-23T11:18:00;19.87;;;17.37;;
17852;SDS011;9052;53.494;14.376;2023-04-23T11:20:27;29.80;;;18.93;;
17852;SDS011;9052;53.494;14.376;2023-04-23T11:22:54;18.50;;;16.50;;
17852;SDS011;9052;53.494;14.376;2023-04-23T11:25:21;20.93;;;17.60;;
17852;SDS011;9052;53.494;14.376;2023-04-23T11:27:48;21.43;;;17.17;;
17852;SDS011;9052;53.494;14.376;2023-04-23T11:30:15;18.20;;;16.37;;
17852;SDS011;9052;53.494;14.376;2023-04-23T11:32:43;19.23;;;15.07;;
17852;SDS011;9052;53.494;14.376;2023-04-23T11:35:11;22.70;;;16.73;;
17852;SDS011;9052;53.494;14.376;2023-04-23T11:37:39;22.30;;;17.57;;
17852;SDS011;9052;53.494;14.376;2023-04-23T11:40:06;17.10;;;14.83;;
17852;SDS011;9052;53.494;14.376;2023-04-23T11:42:39;15.77;;;12.77;;
17852;SDS011;9052;53.494;14.376;2023-04-23T11:45:06;12.13;;;10.13;;
17852;SDS011;9052;53.494;14.376;2023-04-23T11:47:39;14.83;;;8.60;;
17852;SDS011;9052;53.494;14.376;2023-04-23T11:50:07;7.80;;;7.00;;
17852;SDS011;9052;53.494;14.376;2023-04-23T11:52:35;8.87;;;8.00;;
17852;SDS011;9052;53.494;14.376;2023-04-23T11:55:02;5.30;;;4.80;;
17852;SDS011;9052;53.494;14.376;2023-04-23T11:57:29;5.50;;;5.03;;
17852;SDS011;9052;53.494;14.376;2023-04-23T11:59:55;4.60;;;4.20;;
17852;SDS011;9052;53.494;14.376;2023-04-23T12:02:22;6.30;;;4.40;;
17852;SDS011;9052;53.494;14.376;2023-04-23T12:04:49;4.70;;;4.20;;
17852;SDS011;9052;53.494;14.376;2023-04-23T12:07:16;4.47;;;3.77;;
17852;SDS011;9052;53.494;14.376;2023-04-23T12:09:43;3.73;;;3.50;;
17852;SDS011;9052;53.494;14.376;2023-04-23T12:12:11;4.07;;;3.63;;
17852;SDS011;9052;53.494;14.376;2023-04-23T12:14:37;3.37;;;3.17;;
17852;SDS011;9052;53.494;14.376;2023-04-23T12:17:07;6.47;;;3.67;;
17852;SDS011;9052;53.494;14.376;2023-04-23T12:19:34;3.93;;;3.60;;
17852;SDS011;9052;53.494;14.376;2023-04-23T12:22:02;7.27;;;4.40;;
17852;SDS011;9052;53.494;14.376;2023-04-23T12:24:29;5.90;;;4.87;;
17852;SDS011;9052;53.494;14.376;2023-04-23T12:26:57;6.20;;;3.90;;
17852;SDS011;9052;53.494;14.376;2023-04-23T12:29:28;4.57;;;4.27;;
17852;SDS011;9052;53.494;14.376;2023-04-23T12:31:56;4.40;;;3.60;;
17852;SDS011;9052;53.494;14.376;2023-04-23T12:34:23;3.90;;;3.60;;
17852;SDS011;9052;53.494;14.376;2023-04-23T12:36:53;4.07;;;3.87;;
17852;SDS011;9052;53.494;14.376;2023-04-23T12:39:21;4.40;;;3.97;;
17852;SDS011;9052;53.494;14.376;2023-04-23T12:41:49;5.13;;;4.73;;
17852;SDS011;9052;53.494;14.376;2023-04-23T12:44:17;3.30;;;3.03;;
17852;SDS011;9052;53.494;14.376;2023-04-23T12:46:44;5.80;;;4.00;;
17852;SDS011;9052;53.494;14.376;2023-04-23T12:49:10;4.23;;;3.93;;
17852;SDS011;9052;53.494;14.376;2023-04-23T12:51:37;3.40;;;3.17;;
17852;SDS011;9052;53.494;14.376;2023-04-23T12:54:04;3.07;;;2.60;;
17852;SDS011;9052;53.494;14.376;2023-04-23T12:56:30;3.30;;;3.00;;
17852;SDS011;9052;53.494;14.376;2023-04-23T12:58:57;2.23;;;2.13;;
17852;SDS011;9052;53.494;14.376;2023-04-23T13:01:27;1.70;;;1.60;;
17852;SDS011;9052;53.494;14.376;2023-04-23T13:03:54;2.13;;;1.77;;
17852;SDS011;9052;53.494;14.376;2023-04-23T13:06:21;1.53;;;1.40;;
17852;SDS011;9052;53.494;14.376;2023-04-23T13:08:48;1.43;;;1.13;;
17852;SDS011;9052;53.494;14.376;2023-04-23T13:11:21;1.10;;;1.10;;
17852;SDS011;9052;53.494;14.376;2023-04-23T13:13:48;1.00;;;0.83;;
17852;SDS011;9052;53.494;14.376;2023-04-23T13:16:15;0.60;;;0.60;;
17852;SDS011;9052;53.494;14.376;2023-04-23T13:18:44;1.67;;;1.40;;
17852;SDS011;9052;53.494;14.376;2023-04-23T13:21:11;1.40;;;1.30;;
17852;SDS011;9052;53.494;14.376;2023-04-23T13:23:37;2.57;;;1.80;;
17852;SDS011;9052;53.494;14.376;2023-04-23T13:26:04;1.97;;;1.40;;
17852;SDS011;9052;53.494;14.376;2023-04-23T13:28:32;1.13;;;1.13;;
17852;SDS011;9052;53.494;14.376;2023-04-23T13:30:59;1.33;;;1.27;;
17852;SDS011;9052;53.494;14.376;2023-04-23T13:33:26;1.80;;;1.20;;
17852;SDS011;9052;53.494;14.376;2023-04-23T13:35:54;1.80;;;1.70;;
17852;SDS011;9052;53.494;14.376;2023-04-23T13:38:21;1.20;;;1.10;;
17852;SDS011;9052;53.494;14.376;2023-04-23T13:40:48;1.60;;;1.33;;
17852;SDS011;9052;53.494;14.376;2023-04-23T13:43:15;3.43;;;1.50;;
17852;SDS011;9052;53.494;14.376;2023-04-23T13:45:41;1.87;;;1.77;;
17852;SDS011;9052;53.494;14.376;2023-04-23T13:48:08;1.57;;;1.47;;
17852;SDS011;9052;53.494;14.376;2023-04-23T13:50:35;5.43;;;2.03;;
17852;SDS011;9052;53.494;14.376;2023-04-23T13:53:03;2.10;;;2.00;;
17852;SDS011;9052;53.494;14.376;2023-04-23T13:55:30;2.30;;;2.20;;
17852;SDS011;9052;53.494;14.376;2023-04-23T13:57:56;2.57;;;1.97;;
17852;SDS011;9052;53.494;14.376;2023-04-23T14:00:23;1.30;;;1.20;;
17852;SDS011;9052;53.494;14.376;2023-04-23T14:02:50;1.20;;;1.20;;
17852;SDS011;9052;53.494;14.376;2023-04-23T14:05:16;1.60;;;1.50;;
17852;SDS011;9052;53.494;14.376;2023-04-23T14:07:43;1.07;;;0.97;;
17852;SDS011;9052;53.494;14.376;2023-04-23T14:10:11;1.27;;;1.17;;
17852;SDS011;9052;53.494;14.376;2023-04-23T14:12:39;4.83;;;2.40;;
17852;SDS011;9052;53.494;14.376;2023-04-23T14:15:06;4.90;;;2.20;;
17852;SDS011;9052;53.494;14.376;2023-04-23T14:17:33;1.67;;;1.57;;
17852;SDS011;9052;53.494;14.376;2023-04-23T14:20:01;1.37;;;1.27;;
17852;SDS011;9052;53.494;14.376;2023-04-23T14:22:29;1.17;;;1.07;;
17852;SDS011;9052;53.494;14.376;2023-04-23T14:25:00;1.20;;;1.13;;
17852;SDS011;9052;53.494;14.376;2023-04-23T14:27:28;1.50;;;1.47;;
17852;SDS011;9052;53.494;14.376;2023-04-23T14:29:57;1.37;;;1.27;;
17852;SDS011;9052;53.494;14.376;2023-04-23T14:32:29;1.63;;;1.13;;
17852;SDS011;9052;53.494;14.376;2023-04-23T14:34:55;7.17;;;2.30;;